Terminal Aerodrome Forecast
Issued by NWS Buffalo, NY

Home | Current Version | Previous Version | Text Only | Print | Product List | Glossary On
Versions: 1 2 3 4 5 6 7 8 9 10 11 12 13 14 15 16 17 18 19 20 21 22 23 24 25
000
FTUS41 KBUF 080218 AAA
TAFART
TAF AMD
KART 080218Z 0802/0824 22007KT 6SM -SHRA BKN035
      TEMPO 0802/0803 2SM -RA BR BKN025
     FM080500 28009KT 5SM -DZ BR BKN009
     FM081200 36007KT P6SM BKN250
     FM082000 31006KT P6SM FEW050 FEW250=

USA.gov is the U.S. government's official web portal to all federal, state and local government web resources and services.